sensor_id;sensor_type;location;lat;lon;timestamp;P1;durP1;ratioP1;P2;durP2;ratioP2
43835;SDS011;39345;43.964;25.340;2022-12-01T00:02:11;14.23;;;7.75;;
43835;SDS011;39345;43.964;25.340;2022-12-01T00:04:39;13.30;;;7.88;;
43835;SDS011;39345;43.964;25.340;2022-12-01T00:07:07;14.50;;;8.27;;
43835;SDS011;39345;43.964;25.340;2022-12-01T00:09:34;13.13;;;8.10;;
43835;SDS011;39345;43.964;25.340;2022-12-01T00:12:20;12.23;;;7.85;;
43835;SDS011;39345;43.964;25.340;2022-12-01T00:14:48;15.52;;;8.45;;
43835;SDS011;39345;43.964;25.340;2022-12-01T00:17:20;15.75;;;8.20;;
43835;SDS011;39345;43.964;25.340;2022-12-01T00:19:48;11.70;;;7.78;;
43835;SDS011;39345;43.964;25.340;2022-12-01T00:22:16;13.90;;;8.15;;
43835;SDS011;39345;43.964;25.340;2022-12-01T00:24:43;10.95;;;6.80;;
43835;SDS011;39345;43.964;25.340;2022-12-01T00:27:10;14.57;;;8.27;;
43835;SDS011;39345;43.964;25.340;2022-12-01T00:29:38;13.77;;;8.38;;
43835;SDS011;39345;43.964;25.340;2022-12-01T00:32:06;12.93;;;7.57;;
43835;SDS011;39345;43.964;25.340;2022-12-01T00:34:33;13.52;;;8.85;;
43835;SDS011;39345;43.964;25.340;2022-12-01T00:37:01;16.05;;;9.00;;
43835;SDS011;39345;43.964;25.340;2022-12-01T00:39:28;15.18;;;8.75;;
43835;SDS011;39345;43.964;25.340;2022-12-01T00:41:56;15.88;;;9.38;;
43835;SDS011;39345;43.964;25.340;2022-12-01T00:44:23;17.20;;;9.25;;
43835;SDS011;39345;43.964;25.340;2022-12-01T00:46:51;17.13;;;9.63;;
43835;SDS011;39345;43.964;25.340;2022-12-01T00:49:18;15.15;;;9.02;;
43835;SDS011;39345;43.964;25.340;2022-12-01T00:51:45;15.30;;;9.65;;
43835;SDS011;39345;43.964;25.340;2022-12-01T00:54:13;17.08;;;9.35;;
43835;SDS011;39345;43.964;25.340;2022-12-01T00:56:41;14.63;;;9.27;;
43835;SDS011;39345;43.964;25.340;2022-12-01T00:59:08;17.98;;;9.30;;
43835;SDS011;39345;43.964;25.340;2022-12-01T01:01:36;15.98;;;9.38;;
43835;SDS011;39345;43.964;25.340;2022-12-01T01:04:03;20.23;;;9.38;;
43835;SDS011;39345;43.964;25.340;2022-12-01T01:06:31;16.38;;;10.20;;
43835;SDS011;39345;43.964;25.340;2022-12-01T01:08:58;18.38;;;9.50;;
43835;SDS011;39345;43.964;25.340;2022-12-01T01:11:26;17.58;;;10.07;;
43835;SDS011;39345;43.964;25.340;2022-12-01T01:13:53;17.27;;;10.27;;
43835;SDS011;39345;43.964;25.340;2022-12-01T01:16:21;16.88;;;10.18;;
43835;SDS011;39345;43.964;25.340;2022-12-01T01:18:48;17.70;;;10.02;;
43835;SDS011;39345;43.964;25.340;2022-12-01T01:21:17;18.08;;;10.40;;
43835;SDS011;39345;43.964;25.340;2022-12-01T01:23:47;18.20;;;10.10;;
43835;SDS011;39345;43.964;25.340;2022-12-01T01:26:16;16.83;;;8.63;;
43835;SDS011;39345;43.964;25.340;2022-12-01T01:28:45;21.95;;;11.32;;
43835;SDS011;39345;43.964;25.340;2022-12-01T01:31:14;18.23;;;10.73;;
43835;SDS011;39345;43.964;25.340;2022-12-01T01:33:42;19.08;;;10.52;;
43835;SDS011;39345;43.964;25.340;2022-12-01T01:36:10;19.90;;;10.80;;
43835;SDS011;39345;43.964;25.340;2022-12-01T01:38:37;17.30;;;9.32;;
43835;SDS011;39345;43.964;25.340;2022-12-01T01:41:05;19.80;;;10.65;;
43835;SDS011;39345;43.964;25.340;2022-12-01T01:43:49;18.25;;;10.73;;
43835;SDS011;39345;43.964;25.340;2022-12-01T01:48:46;18.70;;;11.07;;
43835;SDS011;39345;43.964;25.340;2022-12-01T01:51:14;20.10;;;10.32;;
43835;SDS011;39345;43.964;25.340;2022-12-01T01:53:42;17.23;;;10.35;;
43835;SDS011;39345;43.964;25.340;2022-12-01T01:56:11;17.88;;;9.35;;
43835;SDS011;39345;43.964;25.340;2022-12-01T01:58:39;17.55;;;9.75;;
43835;SDS011;39345;43.964;25.340;2022-12-01T02:01:07;21.13;;;11.65;;
43835;SDS011;39345;43.964;25.340;2022-12-01T02:03:35;16.83;;;11.43;;
43835;SDS011;39345;43.964;25.340;2022-12-01T02:06:04;20.55;;;10.90;;
43835;SDS011;39345;43.964;25.340;2022-12-01T02:08:33;20.20;;;10.90;;
43835;SDS011;39345;43.964;25.340;2022-12-01T02:17:11;22.15;;;10.45;;
43835;SDS011;39345;43.964;25.340;2022-12-01T02:19:24;21.77;;;10.85;;
43835;SDS011;39345;43.964;25.340;2022-12-01T02:27:33;20.08;;;10.88;;
43835;SDS011;39345;43.964;25.340;2022-12-01T02:30:09;18.23;;;10.20;;
43835;SDS011;39345;43.964;25.340;2022-12-01T02:42:45;17.40;;;9.65;;
43835;SDS011;39345;43.964;25.340;2022-12-01T02:47:56;14.20;;;7.97;;
43835;SDS011;39345;43.964;25.340;2022-12-01T02:50:26;18.45;;;10.35;;
43835;SDS011;39345;43.964;25.340;2022-12-01T02:52:55;18.27;;;9.85;;
43835;SDS011;39345;43.964;25.340;2022-12-01T02:55:23;18.67;;;10.70;;
43835;SDS011;39345;43.964;25.340;2022-12-01T02:57:50;19.83;;;10.48;;
43835;SDS011;39345;43.964;25.340;2022-12-01T03:00:18;17.90;;;10.25;;
43835;SDS011;39345;43.964;25.340;2022-12-01T03:03:11;16.70;;;9.32;;
43835;SDS011;39345;43.964;25.340;2022-12-01T03:06:18;21.27;;;10.75;;
43835;SDS011;39345;43.964;25.340;2022-12-01T03:08:47;16.27;;;9.52;;
43835;SDS011;39345;43.964;25.340;2022-12-01T03:11:17;18.92;;;10.25;;
43835;SDS011;39345;43.964;25.340;2022-12-01T03:16:46;21.00;;;10.60;;
43835;SDS011;39345;43.964;25.340;2022-12-01T03:21:46;15.88;;;8.75;;
43835;SDS011;39345;43.964;25.340;2022-12-01T03:24:16;15.05;;;8.75;;
43835;SDS011;39345;43.964;25.340;2022-12-01T03:26:46;19.35;;;8.85;;
43835;SDS011;39345;43.964;25.340;2022-12-01T03:29:15;16.73;;;9.48;;
43835;SDS011;39345;43.964;25.340;2022-12-01T03:31:46;17.70;;;8.68;;
43835;SDS011;39345;43.964;25.340;2022-12-01T03:39:29;15.25;;;8.63;;
43835;SDS011;39345;43.964;25.340;2022-12-01T03:41:59;13.38;;;7.88;;
43835;SDS011;39345;43.964;25.340;2022-12-01T03:44:30;18.85;;;8.98;;
43835;SDS011;39345;43.964;25.340;2022-12-01T03:47:00;16.15;;;8.93;;
43835;SDS011;39345;43.964;25.340;2022-12-01T03:49:30;18.52;;;9.57;;
43835;SDS011;39345;43.964;25.340;2022-12-01T03:54:28;17.85;;;9.80;;
43835;SDS011;39345;43.964;25.340;2022-12-01T03:56:59;17.23;;;9.20;;
43835;SDS011;39345;43.964;25.340;2022-12-01T03:59:28;17.42;;;9.65;;
43835;SDS011;39345;43.964;25.340;2022-12-01T04:01:57;19.63;;;10.35;;
43835;SDS011;39345;43.964;25.340;2022-12-01T04:04:24;17.73;;;10.35;;
43835;SDS011;39345;43.964;25.340;2022-12-01T04:06:52;18.98;;;10.05;;
43835;SDS011;39345;43.964;25.340;2022-12-01T04:09:19;21.63;;;10.25;;
43835;SDS011;39345;43.964;25.340;2022-12-01T04:11:47;16.92;;;9.40;;
43835;SDS011;39345;43.964;25.340;2022-12-01T04:14:33;16.95;;;9.55;;
43835;SDS011;39345;43.964;25.340;2022-12-01T04:17:00;19.08;;;9.73;;
43835;SDS011;39345;43.964;25.340;2022-12-01T04:19:27;18.95;;;10.05;;
43835;SDS011;39345;43.964;25.340;2022-12-01T04:21:55;20.80;;;10.52;;
43835;SDS011;39345;43.964;25.340;2022-12-01T04:24:22;17.30;;;8.93;;
43835;SDS011;39345;43.964;25.340;2022-12-01T04:26:50;20.05;;;9.10;;
43835;SDS011;39345;43.964;25.340;2022-12-01T04:29:17;18.92;;;10.45;;
43835;SDS011;39345;43.964;25.340;2022-12-01T04:31:45;21.80;;;10.20;;
43835;SDS011;39345;43.964;25.340;2022-12-01T04:34:12;19.80;;;10.20;;
43835;SDS011;39345;43.964;25.340;2022-12-01T04:36:40;21.70;;;10.10;;
43835;SDS011;39345;43.964;25.340;2022-12-01T04:39:07;20.92;;;10.25;;
43835;SDS011;39345;43.964;25.340;2022-12-01T04:41:34;18.30;;;10.32;;
43835;SDS011;39345;43.964;25.340;2022-12-01T04:44:02;20.42;;;10.68;;
43835;SDS011;39345;43.964;25.340;2022-12-01T04:46:29;20.33;;;10.63;;
43835;SDS011;39345;43.964;25.340;2022-12-01T04:48:57;19.17;;;10.27;;
43835;SDS011;39345;43.964;25.340;2022-12-01T04:51:24;20.55;;;10.38;;
43835;SDS011;39345;43.964;25.340;2022-12-01T04:53:52;17.65;;;9.02;;
43835;SDS011;39345;43.964;25.340;2022-12-01T04:56:19;19.25;;;10.15;;
43835;SDS011;39345;43.964;25.340;2022-12-01T04:58:47;19.90;;;10.82;;
43835;SDS011;39345;43.964;25.340;2022-12-01T05:01:16;15.60;;;9.18;;
43835;SDS011;39345;43.964;25.340;2022-12-01T05:03:45;19.17;;;9.68;;
43835;SDS011;39345;43.964;25.340;2022-12-01T05:06:16;17.75;;;9.38;;
43835;SDS011;39345;43.964;25.340;2022-12-01T05:08:44;18.52;;;10.20;;
43835;SDS011;39345;43.964;25.340;2022-12-01T05:11:14;17.95;;;9.82;;
43835;SDS011;39345;43.964;25.340;2022-12-01T05:13:42;19.63;;;11.02;;
43835;SDS011;39345;43.964;25.340;2022-12-01T05:16:15;22.73;;;11.43;;
43835;SDS011;39345;43.964;25.340;2022-12-01T05:18:45;21.92;;;11.27;;
43835;SDS011;39345;43.964;25.340;2022-12-01T05:21:13;17.58;;;10.32;;
43835;SDS011;39345;43.964;25.340;2022-12-01T05:23:41;16.10;;;9.30;;
43835;SDS011;39345;43.964;25.340;2022-12-01T05:26:10;23.60;;;12.10;;
43835;SDS011;39345;43.964;25.340;2022-12-01T05:28:38;22.65;;;10.98;;
43835;SDS011;39345;43.964;25.340;2022-12-01T05:31:06;19.17;;;9.82;;
43835;SDS011;39345;43.964;25.340;2022-12-01T05:33:34;23.00;;;10.93;;
43835;SDS011;39345;43.964;25.340;2022-12-01T05:36:01;23.08;;;10.65;;
43835;SDS011;39345;43.964;25.340;2022-12-01T05:38:28;24.83;;;10.75;;
43835;SDS011;39345;43.964;25.340;2022-12-01T05:40:56;22.88;;;12.00;;
43835;SDS011;39345;43.964;25.340;2022-12-01T05:43:23;25.55;;;12.73;;
43835;SDS011;39345;43.964;25.340;2022-12-01T05:45:55;27.80;;;12.82;;
43835;SDS011;39345;43.964;25.340;2022-12-01T05:48:23;24.25;;;12.38;;
43835;SDS011;39345;43.964;25.340;2022-12-01T05:50:50;28.08;;;12.48;;
43835;SDS011;39345;43.964;25.340;2022-12-01T05:53:18;28.65;;;13.63;;
43835;SDS011;39345;43.964;25.340;2022-12-01T05:55:45;31.75;;;15.25;;
43835;SDS011;39345;43.964;25.340;2022-12-01T05:58:17;36.75;;;17.10;;
43835;SDS011;39345;43.964;25.340;2022-12-01T06:00:44;27.83;;;15.02;;
43835;SDS011;39345;43.964;25.340;2022-12-01T06:03:12;30.50;;;13.50;;
43835;SDS011;39345;43.964;25.340;2022-12-01T06:05:40;25.60;;;13.40;;
43835;SDS011;39345;43.964;25.340;2022-12-01T06:08:07;22.50;;;13.27;;
43835;SDS011;39345;43.964;25.340;2022-12-01T06:10:35;30.00;;;13.63;;
43835;SDS011;39345;43.964;25.340;2022-12-01T06:13:02;26.25;;;13.32;;
43835;SDS011;39345;43.964;25.340;2022-12-01T06:15:29;25.38;;;14.38;;
43835;SDS011;39345;43.964;25.340;2022-12-01T06:17:57;28.40;;;14.93;;
43835;SDS011;39345;43.964;25.340;2022-12-01T06:20:25;26.05;;;14.50;;
43835;SDS011;39345;43.964;25.340;2022-12-01T06:22:52;24.63;;;14.63;;
43835;SDS011;39345;43.964;25.340;2022-12-01T06:25:20;26.77;;;13.25;;
43835;SDS011;39345;43.964;25.340;2022-12-01T06:27:47;31.23;;;14.43;;
43835;SDS011;39345;43.964;25.340;2022-12-01T06:30:15;27.15;;;13.57;;
43835;SDS011;39345;43.964;25.340;2022-12-01T06:32:42;24.00;;;12.00;;
43835;SDS011;39345;43.964;25.340;2022-12-01T06:35:10;27.55;;;13.10;;
43835;SDS011;39345;43.964;25.340;2022-12-01T06:37:38;26.42;;;14.35;;
43835;SDS011;39345;43.964;25.340;2022-12-01T06:40:05;29.30;;;14.75;;
43835;SDS011;39345;43.964;25.340;2022-12-01T06:42:33;34.20;;;18.30;;
43835;SDS011;39345;43.964;25.340;2022-12-01T06:45:01;28.15;;;15.25;;
43835;SDS011;39345;43.964;25.340;2022-12-01T06:47:28;28.30;;;13.40;;
43835;SDS011;39345;43.964;25.340;2022-12-01T06:49:55;31.52;;;15.25;;
43835;SDS011;39345;43.964;25.340;2022-12-01T06:52:23;26.83;;;14.27;;
43835;SDS011;39345;43.964;25.340;2022-12-01T06:54:50;30.80;;;16.50;;
43835;SDS011;39345;43.964;25.340;2022-12-01T06:57:18;26.73;;;14.30;;
43835;SDS011;39345;43.964;25.340;2022-12-01T06:59:46;25.67;;;13.45;;
43835;SDS011;39345;43.964;25.340;2022-12-01T07:02:14;30.60;;;16.70;;
43835;SDS011;39345;43.964;25.340;2022-12-01T07:04:42;26.73;;;14.93;;
43835;SDS011;39345;43.964;25.340;2022-12-01T07:07:09;25.80;;;14.88;;
43835;SDS011;39345;43.964;25.340;2022-12-01T07:09:38;26.95;;;14.55;;
43835;SDS011;39345;43.964;25.340;2022-12-01T07:12:05;22.10;;;12.02;;
43835;SDS011;39345;43.964;25.340;2022-12-01T07:14:33;26.27;;;12.90;;
43835;SDS011;39345;43.964;25.340;2022-12-01T07:17:01;27.08;;;14.15;;
43835;SDS011;39345;43.964;25.340;2022-12-01T07:19:28;24.42;;;13.88;;
43835;SDS011;39345;43.964;25.340;2022-12-01T07:21:56;24.33;;;11.70;;
43835;SDS011;39345;43.964;25.340;2022-12-01T07:24:23;26.88;;;13.98;;
43835;SDS011;39345;43.964;25.340;2022-12-01T07:26:51;24.67;;;13.05;;
43835;SDS011;39345;43.964;25.340;2022-12-01T07:29:18;26.23;;;13.57;;
43835;SDS011;39345;43.964;25.340;2022-12-01T07:31:46;20.95;;;10.57;;
43835;SDS011;39345;43.964;25.340;2022-12-01T07:34:13;20.70;;;11.50;;
43835;SDS011;39345;43.964;25.340;2022-12-01T07:36:41;24.55;;;12.65;;
43835;SDS011;39345;43.964;25.340;2022-12-01T07:39:08;24.95;;;13.00;;
43835;SDS011;39345;43.964;25.340;2022-12-01T07:41:36;19.52;;;10.82;;
43835;SDS011;39345;43.964;25.340;2022-12-01T07:44:03;22.63;;;11.75;;
43835;SDS011;39345;43.964;25.340;2022-12-01T07:46:31;22.33;;;12.45;;
43835;SDS011;39345;43.964;25.340;2022-12-01T07:48:58;21.77;;;11.85;;
43835;SDS011;39345;43.964;25.340;2022-12-01T07:51:26;25.45;;;13.77;;
43835;SDS011;39345;43.964;25.340;2022-12-01T07:53:53;22.52;;;11.63;;
43835;SDS011;39345;43.964;25.340;2022-12-01T07:56:21;18.77;;;10.23;;
43835;SDS011;39345;43.964;25.340;2022-12-01T07:58:49;20.30;;;11.13;;
43835;SDS011;39345;43.964;25.340;2022-12-01T08:01:17;19.20;;;10.70;;
43835;SDS011;39345;43.964;25.340;2022-12-01T08:03:49;21.25;;;10.30;;
43835;SDS011;39345;43.964;25.340;2022-12-01T08:06:17;20.85;;;10.30;;
43835;SDS011;39345;43.964;25.340;2022-12-01T08:08:45;20.67;;;11.68;;
43835;SDS011;39345;43.964;25.340;2022-12-01T08:11:14;21.55;;;11.35;;
43835;SDS011;39345;43.964;25.340;2022-12-01T08:13:42;17.65;;;9.93;;
43835;SDS011;39345;43.964;25.340;2022-12-01T08:16:11;21.73;;;12.45;;
43835;SDS011;39345;43.964;25.340;2022-12-01T08:18:39;24.55;;;12.32;;
43835;SDS011;39345;43.964;25.340;2022-12-01T08:21:07;18.60;;;9.88;;
43835;SDS011;39345;43.964;25.340;2022-12-01T08:23:35;24.70;;;13.73;;
43835;SDS011;39345;43.964;25.340;2022-12-01T08:26:07;29.48;;;17.15;;
43835;SDS011;39345;43.964;25.340;2022-12-01T08:28:35;21.27;;;11.15;;
43835;SDS011;39345;43.964;25.340;2022-12-01T08:31:06;18.30;;;9.88;;
43835;SDS011;39345;43.964;25.340;2022-12-01T08:33:34;21.67;;;11.35;;
43835;SDS011;39345;43.964;25.340;2022-12-01T08:36:03;20.08;;;11.55;;
43835;SDS011;39345;43.964;25.340;2022-12-01T08:38:31;21.52;;;10.88;;
43835;SDS011;39345;43.964;25.340;2022-12-01T08:41:02;21.13;;;11.95;;
43835;SDS011;39345;43.964;25.340;2022-12-01T08:43:30;26.10;;;14.07;;
43835;SDS011;39345;43.964;25.340;2022-12-01T08:46:17;15.82;;;9.23;;
43835;SDS011;39345;43.964;25.340;2022-12-01T08:48:45;21.42;;;11.98;;
43835;SDS011;39345;43.964;25.340;2022-12-01T08:51:13;17.75;;;9.75;;
43835;SDS011;39345;43.964;25.340;2022-12-01T08:53:42;15.98;;;8.70;;
43835;SDS011;39345;43.964;25.340;2022-12-01T08:56:12;19.70;;;10.43;;
43835;SDS011;39345;43.964;25.340;2022-12-01T08:58:41;17.08;;;10.40;;
43835;SDS011;39345;43.964;25.340;2022-12-01T09:01:10;19.55;;;11.23;;
43835;SDS011;39345;43.964;25.340;2022-12-01T09:03:38;20.52;;;11.80;;
43835;SDS011;39345;43.964;25.340;2022-12-01T09:06:06;14.75;;;9.27;;
43835;SDS011;39345;43.964;25.340;2022-12-01T09:08:34;16.00;;;9.65;;
43835;SDS011;39345;43.964;25.340;2022-12-01T09:11:06;17.50;;;9.55;;
43835;SDS011;39345;43.964;25.340;2022-12-01T09:13:34;15.30;;;9.23;;
43835;SDS011;39345;43.964;25.340;2022-12-01T09:16:03;17.65;;;10.18;;
43835;SDS011;39345;43.964;25.340;2022-12-01T09:18:31;19.83;;;11.70;;
43835;SDS011;39345;43.964;25.340;2022-12-01T09:20:59;19.42;;;11.90;;
43835;SDS011;39345;43.964;25.340;2022-12-01T09:23:26;21.83;;;13.77;;
43835;SDS011;39345;43.964;25.340;2022-12-01T09:25:54;19.08;;;10.50;;
43835;SDS011;39345;43.964;25.340;2022-12-01T09:28:21;17.88;;;11.07;;
43835;SDS011;39345;43.964;25.340;2022-12-01T09:30:49;16.23;;;9.05;;
43835;SDS011;39345;43.964;25.340;2022-12-01T09:33:16;19.00;;;10.73;;
43835;SDS011;39345;43.964;25.340;2022-12-01T09:35:44;15.32;;;9.02;;
43835;SDS011;39345;43.964;25.340;2022-12-01T09:38:11;13.32;;;8.95;;
43835;SDS011;39345;43.964;25.340;2022-12-01T09:40:40;17.80;;;9.90;;
43835;SDS011;39345;43.964;25.340;2022-12-01T09:43:17;16.25;;;8.90;;
43835;SDS011;39345;43.964;25.340;2022-12-01T09:45:47;18.00;;;11.60;;
43835;SDS011;39345;43.964;25.340;2022-12-01T09:48:22;16.77;;;10.02;;
43835;SDS011;39345;43.964;25.340;2022-12-01T09:50:51;45.22;;;24.35;;
43835;SDS011;39345;43.964;25.340;2022-12-01T09:53:20;14.68;;;9.23;;
43835;SDS011;39345;43.964;25.340;2022-12-01T09:55:48;28.70;;;17.23;;
43835;SDS011;39345;43.964;25.340;2022-12-01T09:58:20;14.02;;;8.85;;
43835;SDS011;39345;43.964;25.340;2022-12-01T10:00:49;15.63;;;8.77;;
43835;SDS011;39345;43.964;25.340;2022-12-01T10:03:28;15.63;;;9.00;;
43835;SDS011;39345;43.964;25.340;2022-12-01T10:06:02;15.23;;;8.88;;
43835;SDS011;39345;43.964;25.340;2022-12-01T10:11:36;37.67;;;19.05;;
43835;SDS011;39345;43.964;25.340;2022-12-01T10:14:08;13.68;;;8.45;;
43835;SDS011;39345;43.964;25.340;2022-12-01T10:16:47;12.38;;;6.78;;
43835;SDS011;39345;43.964;25.340;2022-12-01T10:19:24;12.82;;;7.20;;
43835;SDS011;39345;43.964;25.340;2022-12-01T10:32:16;10.43;;;6.90;;
43835;SDS011;39345;43.964;25.340;2022-12-01T10:34:44;12.40;;;7.07;;
43835;SDS011;39345;43.964;25.340;2022-12-01T10:37:15;13.02;;;8.15;;
43835;SDS011;39345;43.964;25.340;2022-12-01T10:39:43;9.18;;;6.10;;
43835;SDS011;39345;43.964;25.340;2022-12-01T10:44:40;10.43;;;6.55;;
43835;SDS011;39345;43.964;25.340;2022-12-01T10:47:17;10.20;;;6.63;;
43835;SDS011;39345;43.964;25.340;2022-12-01T10:49:45;11.25;;;6.55;;
43835;SDS011;39345;43.964;25.340;2022-12-01T10:54:56;10.82;;;7.00;;
43835;SDS011;39345;43.964;25.340;2022-12-01T10:57:23;9.52;;;6.30;;
43835;SDS011;39345;43.964;25.340;2022-12-01T11:02:20;9.38;;;6.00;;
43835;SDS011;39345;43.964;25.340;2022-12-01T11:05:03;10.10;;;6.22;;
43835;SDS011;39345;43.964;25.340;2022-12-01T11:10:04;13.45;;;7.75;;
43835;SDS011;39345;43.964;25.340;2022-12-01T11:12:32;10.70;;;6.88;;
43835;SDS011;39345;43.964;25.340;2022-12-01T11:15:00;9.40;;;5.63;;
43835;SDS011;39345;43.964;25.340;2022-12-01T11:19:59;9.52;;;6.13;;
43835;SDS011;39345;43.964;25.340;2022-12-01T11:22:43;10.68;;;6.30;;
43835;SDS011;39345;43.964;25.340;2022-12-01T11:25:17;7.65;;;5.05;;
43835;SDS011;39345;43.964;25.340;2022-12-01T11:30:25;8.10;;;5.55;;
43835;SDS011;39345;43.964;25.340;2022-12-01T11:32:55;8.38;;;5.55;;
43835;SDS011;39345;43.964;25.340;2022-12-01T11:35:28;7.78;;;4.82;;
43835;SDS011;39345;43.964;25.340;2022-12-01T11:37:57;9.32;;;5.13;;
43835;SDS011;39345;43.964;25.340;2022-12-01T11:40:46;6.10;;;4.22;;
43835;SDS011;39345;43.964;25.340;2022-12-01T11:43:33;6.78;;;4.63;;
43835;SDS011;39345;43.964;25.340;2022-12-01T11:46:03;5.78;;;3.72;;
43835;SDS011;39345;43.964;25.340;2022-12-01T11:48:32;6.93;;;4.50;;
43835;SDS011;39345;43.964;25.340;2022-12-01T11:53:38;9.23;;;4.55;;
43835;SDS011;39345;43.964;25.340;2022-12-01T11:58:43;15.27;;;9.23;;
43835;SDS011;39345;43.964;25.340;2022-12-01T12:03:55;7.68;;;4.43;;
43835;SDS011;39345;43.964;25.340;2022-12-01T12:06:26;7.90;;;5.20;;
43835;SDS011;39345;43.964;25.340;2022-12-01T12:09:34;6.30;;;4.60;;
43835;SDS011;39345;43.964;25.340;2022-12-01T12:30:15;15.70;;;7.28;;
43835;SDS011;39345;43.964;25.340;2022-12-01T12:38:25;17.33;;;7.88;;
43835;SDS011;39345;43.964;25.340;2022-12-01T12:40:55;8.32;;;5.32;;
43835;SDS011;39345;43.964;25.340;2022-12-01T12:46:03;8.23;;;4.72;;
43835;SDS011;39345;43.964;25.340;2022-12-01T12:54:19;9.88;;;6.07;;
43835;SDS011;39345;43.964;25.340;2022-12-01T12:56:23;8.15;;;5.18;;
43835;SDS011;39345;43.964;25.340;2022-12-01T12:59:08;7.53;;;5.50;;
43835;SDS011;39345;43.964;25.340;2022-12-01T13:02:19;6.70;;;5.00;;
43835;SDS011;39345;43.964;25.340;2022-12-01T13:04:37;8.57;;;5.57;;
43835;SDS011;39345;43.964;25.340;2022-12-01T13:07:30;10.63;;;5.95;;
43835;SDS011;39345;43.964;25.340;2022-12-01T13:09:55;12.27;;;7.50;;
43835;SDS011;39345;43.964;25.340;2022-12-01T13:12:30;9.55;;;6.50;;
43835;SDS011;39345;43.964;25.340;2022-12-01T13:15:19;9.73;;;6.95;;
43835;SDS011;39345;43.964;25.340;2022-12-01T13:18:02;9.75;;;7.10;;
43835;SDS011;39345;43.964;25.340;2022-12-01T13:20:34;10.27;;;6.63;;
43835;SDS011;39345;43.964;25.340;2022-12-01T13:23:03;11.95;;;6.95;;
43835;SDS011;39345;43.964;25.340;2022-12-01T13:25:32;10.02;;;5.88;;
43835;SDS011;39345;43.964;25.340;2022-12-01T13:28:01;7.70;;;5.20;;
43835;SDS011;39345;43.964;25.340;2022-12-01T13:30:29;8.60;;;5.55;;
43835;SDS011;39345;43.964;25.340;2022-12-01T13:32:57;8.25;;;5.13;;
43835;SDS011;39345;43.964;25.340;2022-12-01T13:40:43;9.23;;;5.65;;
43835;SDS011;39345;43.964;25.340;2022-12-01T13:43:17;13.70;;;8.00;;
43835;SDS011;39345;43.964;25.340;2022-12-01T13:45:46;10.40;;;6.20;;
43835;SDS011;39345;43.964;25.340;2022-12-01T13:51:14;11.07;;;6.25;;
43835;SDS011;39345;43.964;25.340;2022-12-01T13:54:28;9.05;;;6.32;;
43835;SDS011;39345;43.964;25.340;2022-12-01T13:59:36;12.07;;;7.25;;
43835;SDS011;39345;43.964;25.340;2022-12-01T14:02:05;14.68;;;8.57;;
43835;SDS011;39345;43.964;25.340;2022-12-01T14:04:33;18.80;;;10.63;;
43835;SDS011;39345;43.964;25.340;2022-12-01T14:07:12;15.32;;;10.55;;
43835;SDS011;39345;43.964;25.340;2022-12-01T14:09:40;13.20;;;7.65;;
43835;SDS011;39345;43.964;25.340;2022-12-01T14:12:20;17.15;;;9.38;;
43835;SDS011;39345;43.964;25.340;2022-12-01T14:14:50;15.02;;;8.95;;
43835;SDS011;39345;43.964;25.340;2022-12-01T14:17:24;15.48;;;9.00;;
43835;SDS011;39345;43.964;25.340;2022-12-01T14:19:53;12.57;;;7.15;;
43835;SDS011;39345;43.964;25.340;2022-12-01T14:22:30;10.95;;;7.03;;
43835;SDS011;39345;43.964;25.340;2022-12-01T14:24:59;12.75;;;8.57;;
43835;SDS011;39345;43.964;25.340;2022-12-01T14:32:46;19.15;;;11.40;;
43835;SDS011;39345;43.964;25.340;2022-12-01T14:35:14;17.70;;;11.82;;
43835;SDS011;39345;43.964;25.340;2022-12-01T14:37:42;28.65;;;13.70;;
43835;SDS011;39345;43.964;25.340;2022-12-01T14:40:16;36.33;;;17.65;;
43835;SDS011;39345;43.964;25.340;2022-12-01T14:42:46;22.80;;;11.85;;
43835;SDS011;39345;43.964;25.340;2022-12-01T14:45:54;27.02;;;13.55;;
43835;SDS011;39345;43.964;25.340;2022-12-01T14:48:24;21.10;;;12.00;;
43835;SDS011;39345;43.964;25.340;2022-12-01T14:50:54;24.30;;;14.52;;
43835;SDS011;39345;43.964;25.340;2022-12-01T14:53:29;32.17;;;16.75;;
43835;SDS011;39345;43.964;25.340;2022-12-01T14:56:01;25.27;;;13.70;;
43835;SDS011;39345;43.964;25.340;2022-12-01T14:58:33;25.75;;;14.25;;
43835;SDS011;39345;43.964;25.340;2022-12-01T15:01:08;22.92;;;13.32;;
43835;SDS011;39345;43.964;25.340;2022-12-01T15:03:46;22.25;;;12.52;;
43835;SDS011;39345;43.964;25.340;2022-12-01T15:06:16;35.85;;;19.75;;
43835;SDS011;39345;43.964;25.340;2022-12-01T15:08:43;25.33;;;14.10;;
43835;SDS011;39345;43.964;25.340;2022-12-01T15:13:57;19.33;;;11.60;;
43835;SDS011;39345;43.964;25.340;2022-12-01T15:16:25;25.05;;;13.90;;
43835;SDS011;39345;43.964;25.340;2022-12-01T15:18:54;35.47;;;19.13;;
43835;SDS011;39345;43.964;25.340;2022-12-01T15:26:24;27.13;;;14.15;;
43835;SDS011;39345;43.964;25.340;2022-12-01T15:31:32;49.80;;;27.60;;
43835;SDS011;39345;43.964;25.340;2022-12-01T15:34:01;40.03;;;22.73;;
43835;SDS011;39345;43.964;25.340;2022-12-01T15:36:28;39.70;;;20.17;;
43835;SDS011;39345;43.964;25.340;2022-12-01T15:38:56;47.45;;;20.15;;
43835;SDS011;39345;43.964;25.340;2022-12-01T15:41:32;102.65;;;33.55;;
43835;SDS011;39345;43.964;25.340;2022-12-01T15:44:00;47.38;;;20.15;;
43835;SDS011;39345;43.964;25.340;2022-12-01T15:46:31;35.78;;;20.17;;
43835;SDS011;39345;43.964;25.340;2022-12-01T15:49:46;27.77;;;15.77;;
43835;SDS011;39345;43.964;25.340;2022-12-01T15:52:02;25.40;;;14.00;;
43835;SDS011;39345;43.964;25.340;2022-12-01T15:54:31;31.77;;;18.13;;
43835;SDS011;39345;43.964;25.340;2022-12-01T15:56:58;32.03;;;18.73;;
43835;SDS011;39345;43.964;25.340;2022-12-01T16:02:04;34.20;;;18.42;;
43835;SDS011;39345;43.964;25.340;2022-12-01T16:04:32;40.30;;;21.88;;
43835;SDS011;39345;43.964;25.340;2022-12-01T16:07:02;34.85;;;20.25;;
43835;SDS011;39345;43.964;25.340;2022-12-01T16:09:35;32.88;;;17.10;;
43835;SDS011;39345;43.964;25.340;2022-12-01T16:14:34;26.63;;;15.32;;
43835;SDS011;39345;43.964;25.340;2022-12-01T16:17:02;31.13;;;15.80;;
43835;SDS011;39345;43.964;25.340;2022-12-01T16:19:31;31.55;;;15.57;;
43835;SDS011;39345;43.964;25.340;2022-12-01T16:24:34;26.58;;;15.05;;
43835;SDS011;39345;43.964;25.340;2022-12-01T16:27:06;27.10;;;14.75;;
43835;SDS011;39345;43.964;25.340;2022-12-01T16:29:56;27.60;;;14.10;;
43835;SDS011;39345;43.964;25.340;2022-12-01T16:34:50;29.30;;;16.27;;
43835;SDS011;39345;43.964;25.340;2022-12-01T16:37:18;24.77;;;13.75;;
43835;SDS011;39345;43.964;25.340;2022-12-01T16:39:49;29.30;;;15.80;;
43835;SDS011;39345;43.964;25.340;2022-12-01T16:42:18;33.80;;;17.85;;
43835;SDS011;39345;43.964;25.340;2022-12-01T16:44:49;26.33;;;14.73;;
43835;SDS011;39345;43.964;25.340;2022-12-01T16:49:45;32.30;;;15.65;;
43835;SDS011;39345;43.964;25.340;2022-12-01T16:52:13;29.08;;;15.57;;
43835;SDS011;39345;43.964;25.340;2022-12-01T16:55:00;27.88;;;15.13;;
43835;SDS011;39345;43.964;25.340;2022-12-01T16:57:28;33.35;;;16.85;;
43835;SDS011;39345;43.964;25.340;2022-12-01T16:59:55;35.90;;;18.63;;
43835;SDS011;39345;43.964;25.340;2022-12-01T17:02:23;27.98;;;14.00;;